sensor_id;sensor_type;location;lat;lon;timestamp;P1;durP1;ratioP1;P2;durP2;ratioP2
63217;SDS011;49314;48.278;16.378;2022-10-26T00:01:24;6.32;;;5.40;;
63217;SDS011;49314;48.278;16.378;2022-10-26T00:03:49;5.03;;;4.53;;
63217;SDS011;49314;48.278;16.378;2022-10-26T00:06:16;5.82;;;4.78;;
63217;SDS011;49314;48.278;16.378;2022-10-26T00:08:42;5.38;;;4.88;;
63217;SDS011;49314;48.278;16.378;2022-10-26T00:11:07;7.85;;;4.93;;
63217;SDS011;49314;48.278;16.378;2022-10-26T00:13:33;4.13;;;3.83;;
63217;SDS011;49314;48.278;16.378;2022-10-26T00:15:58;4.85;;;4.45;;
63217;SDS011;49314;48.278;16.378;2022-10-26T00:18:24;4.70;;;4.47;;
63217;SDS011;49314;48.278;16.378;2022-10-26T00:20:49;4.93;;;4.53;;
63217;SDS011;49314;48.278;16.378;2022-10-26T00:23:14;4.93;;;4.63;;
63217;SDS011;49314;48.278;16.378;2022-10-26T00:25:40;4.07;;;3.72;;
63217;SDS011;49314;48.278;16.378;2022-10-26T00:28:05;4.73;;;4.27;;
63217;SDS011;49314;48.278;16.378;2022-10-26T00:30:30;4.85;;;4.43;;
63217;SDS011;49314;48.278;16.378;2022-10-26T00:32:55;6.07;;;4.07;;
63217;SDS011;49314;48.278;16.378;2022-10-26T00:35:21;4.73;;;4.43;;
63217;SDS011;49314;48.278;16.378;2022-10-26T00:37:46;6.70;;;4.97;;
63217;SDS011;49314;48.278;16.378;2022-10-26T00:40:11;4.97;;;4.57;;
63217;SDS011;49314;48.278;16.378;2022-10-26T00:42:36;5.10;;;4.70;;
63217;SDS011;49314;48.278;16.378;2022-10-26T00:45:15;4.67;;;4.43;;
63217;SDS011;49314;48.278;16.378;2022-10-26T00:47:44;4.30;;;3.90;;
63217;SDS011;49314;48.278;16.378;2022-10-26T00:50:31;4.25;;;3.88;;
63217;SDS011;49314;48.278;16.378;2022-10-26T00:52:55;4.78;;;4.45;;
63217;SDS011;49314;48.278;16.378;2022-10-26T00:55:23;3.95;;;3.75;;
63217;SDS011;49314;48.278;16.378;2022-10-26T00:57:50;4.53;;;4.13;;
63217;SDS011;49314;48.278;16.378;2022-10-26T01:00:17;4.88;;;4.43;;
63217;SDS011;49314;48.278;16.378;2022-10-26T01:02:42;5.53;;;5.03;;
63217;SDS011;49314;48.278;16.378;2022-10-26T01:05:08;4.13;;;3.85;;
63217;SDS011;49314;48.278;16.378;2022-10-26T01:07:34;4.45;;;4.20;;
63217;SDS011;49314;48.278;16.378;2022-10-26T01:10:00;4.75;;;4.15;;
63217;SDS011;49314;48.278;16.378;2022-10-26T01:12:25;3.95;;;3.65;;
63217;SDS011;49314;48.278;16.378;2022-10-26T01:14:51;4.47;;;4.10;;
63217;SDS011;49314;48.278;16.378;2022-10-26T01:32:44;4.63;;;4.18;;
63217;SDS011;49314;48.278;16.378;2022-10-26T01:35:26;3.75;;;3.45;;
63217;SDS011;49314;48.278;16.378;2022-10-26T01:38:06;4.68;;;4.32;;
63217;SDS011;49314;48.278;16.378;2022-10-26T01:40:35;4.15;;;3.80;;
63217;SDS011;49314;48.278;16.378;2022-10-26T01:43:03;4.43;;;4.07;;
63217;SDS011;49314;48.278;16.378;2022-10-26T01:45:29;4.43;;;4.03;;
63217;SDS011;49314;48.278;16.378;2022-10-26T01:47:55;5.10;;;4.70;;
63217;SDS011;49314;48.278;16.378;2022-10-26T01:50:21;4.80;;;4.47;;
63217;SDS011;49314;48.278;16.378;2022-10-26T01:52:50;4.60;;;4.28;;
63217;SDS011;49314;48.278;16.378;2022-10-26T01:58:01;4.97;;;4.57;;
63217;SDS011;49314;48.278;16.378;2022-10-26T02:00:28;4.18;;;3.78;;
63217;SDS011;49314;48.278;16.378;2022-10-26T02:03:14;5.03;;;4.63;;
63217;SDS011;49314;48.278;16.378;2022-10-26T02:05:58;4.28;;;3.97;;
63217;SDS011;49314;48.278;16.378;2022-10-26T02:08:37;3.88;;;3.67;;
63217;SDS011;49314;48.278;16.378;2022-10-26T02:21:09;5.13;;;4.73;;
63217;SDS011;49314;48.278;16.378;2022-10-26T02:23:35;5.00;;;4.63;;
63217;SDS011;49314;48.278;16.378;2022-10-26T02:26:02;4.88;;;4.07;;
63217;SDS011;49314;48.278;16.378;2022-10-26T02:28:33;4.55;;;4.25;;
63217;SDS011;49314;48.278;16.378;2022-10-26T02:31:00;4.53;;;4.03;;
63217;SDS011;49314;48.278;16.378;2022-10-26T02:33:27;5.10;;;4.40;;
63217;SDS011;49314;48.278;16.378;2022-10-26T02:35:53;5.60;;;5.10;;
63217;SDS011;49314;48.278;16.378;2022-10-26T02:38:19;4.45;;;4.15;;
63217;SDS011;49314;48.278;16.378;2022-10-26T02:40:48;4.63;;;4.22;;
63217;SDS011;49314;48.278;16.378;2022-10-26T02:43:14;4.32;;;3.90;;
63217;SDS011;49314;48.278;16.378;2022-10-26T02:45:47;3.95;;;3.75;;
63217;SDS011;49314;48.278;16.378;2022-10-26T02:48:13;4.05;;;3.75;;
63217;SDS011;49314;48.278;16.378;2022-10-26T02:50:43;3.85;;;3.55;;
63217;SDS011;49314;48.278;16.378;2022-10-26T02:53:15;4.63;;;4.25;;
63217;SDS011;49314;48.278;16.378;2022-10-26T02:55:43;3.83;;;2.30;;
63217;SDS011;49314;48.278;16.378;2022-10-26T02:58:11;4.78;;;4.38;;
63217;SDS011;49314;48.278;16.378;2022-10-26T03:00:39;4.25;;;3.95;;
63217;SDS011;49314;48.278;16.378;2022-10-26T03:03:06;5.05;;;4.70;;
63217;SDS011;49314;48.278;16.378;2022-10-26T03:05:31;4.90;;;4.50;;
63217;SDS011;49314;48.278;16.378;2022-10-26T03:07:57;4.18;;;3.72;;
63217;SDS011;49314;48.278;16.378;2022-10-26T03:10:22;4.55;;;4.20;;
63217;SDS011;49314;48.278;16.378;2022-10-26T03:12:48;4.30;;;3.97;;
63217;SDS011;49314;48.278;16.378;2022-10-26T03:15:13;4.10;;;3.75;;
63217;SDS011;49314;48.278;16.378;2022-10-26T03:17:39;4.80;;;4.25;;
63217;SDS011;49314;48.278;16.378;2022-10-26T03:20:05;4.20;;;3.95;;
63217;SDS011;49314;48.278;16.378;2022-10-26T03:22:30;4.72;;;4.43;;
63217;SDS011;49314;48.278;16.378;2022-10-26T03:24:55;3.70;;;3.50;;
63217;SDS011;49314;48.278;16.378;2022-10-26T03:27:20;4.50;;;4.17;;
63217;SDS011;49314;48.278;16.378;2022-10-26T03:29:46;4.72;;;4.38;;
63217;SDS011;49314;48.278;16.378;2022-10-26T03:32:12;4.67;;;4.37;;
63217;SDS011;49314;48.278;16.378;2022-10-26T03:34:37;3.83;;;3.57;;
63217;SDS011;49314;48.278;16.378;2022-10-26T03:37:02;4.93;;;4.63;;
63217;SDS011;49314;48.278;16.378;2022-10-26T03:39:27;4.37;;;3.97;;
63217;SDS011;49314;48.278;16.378;2022-10-26T03:41:52;4.50;;;4.20;;
63217;SDS011;49314;48.278;16.378;2022-10-26T03:44:19;3.75;;;3.45;;
63217;SDS011;49314;48.278;16.378;2022-10-26T03:46:44;4.43;;;4.00;;
63217;SDS011;49314;48.278;16.378;2022-10-26T03:49:09;4.60;;;4.30;;
63217;SDS011;49314;48.278;16.378;2022-10-26T03:51:34;4.27;;;4.07;;
63217;SDS011;49314;48.278;16.378;2022-10-26T03:54:00;4.37;;;4.07;;
63217;SDS011;49314;48.278;16.378;2022-10-26T03:56:25;4.37;;;4.07;;
63217;SDS011;49314;48.278;16.378;2022-10-26T03:58:50;4.28;;;3.97;;
63217;SDS011;49314;48.278;16.378;2022-10-26T04:01:15;4.43;;;4.03;;
63217;SDS011;49314;48.278;16.378;2022-10-26T04:03:41;4.63;;;4.32;;
63217;SDS011;49314;48.278;16.378;2022-10-26T04:06:06;3.90;;;3.53;;
63217;SDS011;49314;48.278;16.378;2022-10-26T04:08:31;4.38;;;3.97;;
63217;SDS011;49314;48.278;16.378;2022-10-26T04:10:56;3.10;;;2.70;;
63217;SDS011;49314;48.278;16.378;2022-10-26T04:13:22;5.20;;;4.80;;
63217;SDS011;49314;48.278;16.378;2022-10-26T04:15:47;4.60;;;4.30;;
63217;SDS011;49314;48.278;16.378;2022-10-26T04:18:12;4.53;;;4.23;;
63217;SDS011;49314;48.278;16.378;2022-10-26T04:20:38;3.67;;;3.47;;
63217;SDS011;49314;48.278;16.378;2022-10-26T04:23:06;4.40;;;4.10;;
63217;SDS011;49314;48.278;16.378;2022-10-26T04:25:32;4.78;;;4.38;;
63217;SDS011;49314;48.278;16.378;2022-10-26T04:27:57;3.58;;;3.38;;
63217;SDS011;49314;48.278;16.378;2022-10-26T04:30:22;4.32;;;4.03;;
63217;SDS011;49314;48.278;16.378;2022-10-26T04:32:48;4.63;;;4.32;;
63217;SDS011;49314;48.278;16.378;2022-10-26T04:35:13;5.45;;;5.05;;
63217;SDS011;49314;48.278;16.378;2022-10-26T04:37:38;4.60;;;4.30;;
63217;SDS011;49314;48.278;16.378;2022-10-26T04:40:04;4.10;;;3.70;;
63217;SDS011;49314;48.278;16.378;2022-10-26T04:42:29;4.32;;;4.13;;
63217;SDS011;49314;48.278;16.378;2022-10-26T04:44:58;4.57;;;4.30;;
63217;SDS011;49314;48.278;16.378;2022-10-26T04:47:23;4.38;;;4.10;;
63217;SDS011;49314;48.278;16.378;2022-10-26T04:49:48;4.70;;;4.43;;
63217;SDS011;49314;48.278;16.378;2022-10-26T04:52:13;4.37;;;4.07;;
63217;SDS011;49314;48.278;16.378;2022-10-26T04:54:38;3.80;;;3.60;;
63217;SDS011;49314;48.278;16.378;2022-10-26T04:57:03;3.53;;;3.33;;
63217;SDS011;49314;48.278;16.378;2022-10-26T04:59:29;4.80;;;4.47;;
63217;SDS011;49314;48.278;16.378;2022-10-26T05:01:54;4.87;;;4.47;;
63217;SDS011;49314;48.278;16.378;2022-10-26T05:04:19;4.83;;;4.43;;
63217;SDS011;49314;48.278;16.378;2022-10-26T05:06:44;4.17;;;3.87;;
63217;SDS011;49314;48.278;16.378;2022-10-26T05:09:09;4.50;;;4.17;;
63217;SDS011;49314;48.278;16.378;2022-10-26T05:11:35;4.00;;;3.80;;
63217;SDS011;49314;48.278;16.378;2022-10-26T05:14:00;4.30;;;4.10;;
63217;SDS011;49314;48.278;16.378;2022-10-26T05:16:25;4.57;;;4.37;;
63217;SDS011;49314;48.278;16.378;2022-10-26T05:18:50;4.90;;;4.60;;
63217;SDS011;49314;48.278;16.378;2022-10-26T05:21:16;3.70;;;3.43;;
63217;SDS011;49314;48.278;16.378;2022-10-26T05:23:53;5.43;;;5.13;;
63217;SDS011;49314;48.278;16.378;2022-10-26T05:26:20;5.40;;;4.95;;
63217;SDS011;49314;48.278;16.378;2022-10-26T05:28:45;5.05;;;4.75;;
63217;SDS011;49314;48.278;16.378;2022-10-26T05:31:10;4.87;;;4.57;;
63217;SDS011;49314;48.278;16.378;2022-10-26T05:33:35;5.20;;;4.90;;
63217;SDS011;49314;48.278;16.378;2022-10-26T05:36:01;4.87;;;4.63;;
63217;SDS011;49314;48.278;16.378;2022-10-26T05:38:26;5.27;;;4.97;;
63217;SDS011;49314;48.278;16.378;2022-10-26T05:40:52;4.97;;;4.68;;
63217;SDS011;49314;48.278;16.378;2022-10-26T05:43:17;4.80;;;4.60;;
63217;SDS011;49314;48.278;16.378;2022-10-26T05:45:43;4.72;;;4.43;;
63217;SDS011;49314;48.278;16.378;2022-10-26T05:48:09;4.45;;;4.18;;
63217;SDS011;49314;48.278;16.378;2022-10-26T05:50:34;5.22;;;4.93;;
63217;SDS011;49314;48.278;16.378;2022-10-26T05:52:59;5.47;;;5.17;;
63217;SDS011;49314;48.278;16.378;2022-10-26T05:55:25;5.18;;;4.88;;
63217;SDS011;49314;48.278;16.378;2022-10-26T05:57:50;5.07;;;4.78;;
63217;SDS011;49314;48.278;16.378;2022-10-26T06:00:16;5.07;;;4.80;;
63217;SDS011;49314;48.278;16.378;2022-10-26T06:05:16;5.35;;;4.95;;
63217;SDS011;49314;48.278;16.378;2022-10-26T06:07:43;4.88;;;4.68;;
63217;SDS011;49314;48.278;16.378;2022-10-26T06:10:09;4.65;;;4.35;;
63217;SDS011;49314;48.278;16.378;2022-10-26T06:12:34;5.10;;;4.90;;
63217;SDS011;49314;48.278;16.378;2022-10-26T06:15:00;5.07;;;4.72;;
63217;SDS011;49314;48.278;16.378;2022-10-26T06:30:05;5.40;;;5.10;;
63217;SDS011;49314;48.278;16.378;2022-10-26T06:32:31;6.15;;;5.85;;
63217;SDS011;49314;48.278;16.378;2022-10-26T06:37:44;6.03;;;5.72;;
63217;SDS011;49314;48.278;16.378;2022-10-26T06:40:10;6.85;;;6.28;;
63217;SDS011;49314;48.278;16.378;2022-10-26T06:42:37;6.25;;;5.85;;
63217;SDS011;49314;48.278;16.378;2022-10-26T06:45:03;6.25;;;5.85;;
63217;SDS011;49314;48.278;16.378;2022-10-26T06:47:30;6.07;;;5.68;;
63217;SDS011;49314;48.278;16.378;2022-10-26T06:50:35;5.90;;;5.60;;
63217;SDS011;49314;48.278;16.378;2022-10-26T06:55:44;6.13;;;5.72;;
63217;SDS011;49314;48.278;16.378;2022-10-26T06:58:14;5.13;;;4.82;;
63217;SDS011;49314;48.278;16.378;2022-10-26T07:00:40;5.88;;;5.55;;
63217;SDS011;49314;48.278;16.378;2022-10-26T07:03:06;5.35;;;5.05;;
63217;SDS011;49314;48.278;16.378;2022-10-26T07:05:32;5.83;;;5.43;;
63217;SDS011;49314;48.278;16.378;2022-10-26T07:07:57;5.00;;;4.70;;
63217;SDS011;49314;48.278;16.378;2022-10-26T07:10:23;5.13;;;4.72;;
63217;SDS011;49314;48.278;16.378;2022-10-26T07:12:48;5.60;;;5.30;;
63217;SDS011;49314;48.278;16.378;2022-10-26T07:15:13;4.82;;;4.63;;
63217;SDS011;49314;48.278;16.378;2022-10-26T07:17:42;5.88;;;5.38;;
63217;SDS011;49314;48.278;16.378;2022-10-26T07:20:09;5.45;;;5.05;;
63217;SDS011;49314;48.278;16.378;2022-10-26T07:22:34;5.75;;;5.35;;
63217;SDS011;49314;48.278;16.378;2022-10-26T07:24:59;6.57;;;6.23;;
63217;SDS011;49314;48.278;16.378;2022-10-26T07:27:24;5.17;;;4.80;;
63217;SDS011;49314;48.278;16.378;2022-10-26T07:29:49;5.87;;;5.47;;
63217;SDS011;49314;48.278;16.378;2022-10-26T07:32:15;5.77;;;5.37;;
63217;SDS011;49314;48.278;16.378;2022-10-26T07:34:40;5.60;;;5.20;;
63217;SDS011;49314;48.278;16.378;2022-10-26T07:37:05;5.33;;;5.03;;
63217;SDS011;49314;48.278;16.378;2022-10-26T07:39:31;5.40;;;5.07;;
63217;SDS011;49314;48.278;16.378;2022-10-26T07:41:56;5.30;;;5.00;;
63217;SDS011;49314;48.278;16.378;2022-10-26T07:44:22;5.20;;;4.88;;
63217;SDS011;49314;48.278;16.378;2022-10-26T07:46:47;4.97;;;4.67;;
63217;SDS011;49314;48.278;16.378;2022-10-26T07:49:12;6.13;;;5.73;;
63217;SDS011;49314;48.278;16.378;2022-10-26T07:51:37;6.10;;;5.77;;
63217;SDS011;49314;48.278;16.378;2022-10-26T07:54:02;10.13;;;5.77;;
63217;SDS011;49314;48.278;16.378;2022-10-26T07:56:28;6.77;;;6.00;;
63217;SDS011;49314;48.278;16.378;2022-10-26T07:58:54;6.18;;;5.78;;
63217;SDS011;49314;48.278;16.378;2022-10-26T08:01:19;5.93;;;5.43;;
63217;SDS011;49314;48.278;16.378;2022-10-26T08:03:44;4.85;;;4.55;;
63217;SDS011;49314;48.278;16.378;2022-10-26T08:06:10;7.13;;;5.40;;
63217;SDS011;49314;48.278;16.378;2022-10-26T08:08:35;6.78;;;6.30;;
63217;SDS011;49314;48.278;16.378;2022-10-26T08:11:00;6.85;;;6.30;;
63217;SDS011;49314;48.278;16.378;2022-10-26T08:13:26;6.60;;;6.20;;
63217;SDS011;49314;48.278;16.378;2022-10-26T08:16:01;7.57;;;7.03;;
63217;SDS011;49314;48.278;16.378;2022-10-26T08:18:26;5.85;;;5.50;;
63217;SDS011;49314;48.278;16.378;2022-10-26T08:20:52;7.17;;;6.67;;
63217;SDS011;49314;48.278;16.378;2022-10-26T08:23:17;7.10;;;6.57;;
63217;SDS011;49314;48.278;16.378;2022-10-26T08:25:42;6.43;;;5.93;;
63217;SDS011;49314;48.278;16.378;2022-10-26T08:28:07;7.23;;;6.73;;
63217;SDS011;49314;48.278;16.378;2022-10-26T08:30:33;6.90;;;6.47;;
63217;SDS011;49314;48.278;16.378;2022-10-26T08:32:59;6.55;;;6.15;;
63217;SDS011;49314;48.278;16.378;2022-10-26T08:35:25;5.55;;;5.13;;
63217;SDS011;49314;48.278;16.378;2022-10-26T08:37:51;6.65;;;6.25;;
63217;SDS011;49314;48.278;16.378;2022-10-26T08:40:16;7.47;;;6.95;;
63217;SDS011;49314;48.278;16.378;2022-10-26T08:42:44;7.80;;;7.20;;
63217;SDS011;49314;48.278;16.378;2022-10-26T08:45:23;6.80;;;6.30;;
63217;SDS011;49314;48.278;16.378;2022-10-26T08:47:49;7.03;;;6.53;;
63217;SDS011;49314;48.278;16.378;2022-10-26T08:50:18;6.95;;;6.25;;
63217;SDS011;49314;48.278;16.378;2022-10-26T08:52:55;10.23;;;7.55;;
63217;SDS011;49314;48.278;16.378;2022-10-26T08:55:27;12.75;;;9.25;;
63217;SDS011;49314;48.278;16.378;2022-10-26T08:57:53;13.70;;;10.98;;
63217;SDS011;49314;48.278;16.378;2022-10-26T09:00:19;12.63;;;11.00;;
63217;SDS011;49314;48.278;16.378;2022-10-26T09:02:48;14.63;;;11.43;;
63217;SDS011;49314;48.278;16.378;2022-10-26T09:05:14;18.33;;;13.05;;
63217;SDS011;49314;48.278;16.378;2022-10-26T09:15:07;23.25;;;15.45;;
63217;SDS011;49314;48.278;16.378;2022-10-26T09:17:44;20.70;;;16.38;;
63217;SDS011;49314;48.278;16.378;2022-10-26T09:23:01;21.63;;;15.68;;
63217;SDS011;49314;48.278;16.378;2022-10-26T09:25:36;21.42;;;16.55;;
63217;SDS011;49314;48.278;16.378;2022-10-26T09:28:02;16.67;;;14.50;;
63217;SDS011;49314;48.278;16.378;2022-10-26T09:30:28;16.80;;;13.85;;
63217;SDS011;49314;48.278;16.378;2022-10-26T09:33:16;16.35;;;13.48;;
63217;SDS011;49314;48.278;16.378;2022-10-26T09:35:43;19.85;;;14.73;;
63217;SDS011;49314;48.278;16.378;2022-10-26T09:38:14;17.85;;;14.07;;
63217;SDS011;49314;48.278;16.378;2022-10-26T09:41:04;17.77;;;14.77;;
63217;SDS011;49314;48.278;16.378;2022-10-26T09:43:28;19.00;;;15.77;;
63217;SDS011;49314;48.278;16.378;2022-10-26T09:45:54;18.08;;;16.27;;
63217;SDS011;49314;48.278;16.378;2022-10-26T09:51:03;15.45;;;13.57;;
63217;SDS011;49314;48.278;16.378;2022-10-26T09:53:28;19.52;;;15.75;;
63217;SDS011;49314;48.278;16.378;2022-10-26T09:55:58;18.50;;;15.60;;
63217;SDS011;49314;48.278;16.378;2022-10-26T09:58:25;16.67;;;14.57;;
63217;SDS011;49314;48.278;16.378;2022-10-26T10:00:51;17.08;;;15.20;;
63217;SDS011;49314;48.278;16.378;2022-10-26T10:03:19;17.73;;;15.23;;
63217;SDS011;49314;48.278;16.378;2022-10-26T10:05:44;17.50;;;14.90;;
63217;SDS011;49314;48.278;16.378;2022-10-26T10:10:35;17.27;;;15.10;;
63217;SDS011;49314;48.278;16.378;2022-10-26T10:13:02;16.63;;;14.85;;
63217;SDS011;49314;48.278;16.378;2022-10-26T10:15:38;18.25;;;14.77;;
63217;SDS011;49314;48.278;16.378;2022-10-26T10:18:03;17.00;;;15.00;;
63217;SDS011;49314;48.278;16.378;2022-10-26T10:20:31;18.23;;;16.27;;
63217;SDS011;49314;48.278;16.378;2022-10-26T10:22:58;17.65;;;15.73;;
63217;SDS011;49314;48.278;16.378;2022-10-26T10:25:36;19.08;;;16.92;;
63217;SDS011;49314;48.278;16.378;2022-10-26T10:28:07;17.38;;;15.60;;
63217;SDS011;49314;48.278;16.378;2022-10-26T10:30:43;16.52;;;14.65;;
63217;SDS011;49314;48.278;16.378;2022-10-26T10:33:15;18.70;;;16.13;;
63217;SDS011;49314;48.278;16.378;2022-10-26T10:35:46;18.50;;;15.73;;
63217;SDS011;49314;48.278;16.378;2022-10-26T10:38:17;18.40;;;13.82;;
63217;SDS011;49314;48.278;16.378;2022-10-26T10:40:50;18.17;;;16.23;;
63217;SDS011;49314;48.278;16.378;2022-10-26T10:43:16;16.55;;;12.90;;
63217;SDS011;49314;48.278;16.378;2022-10-26T10:45:45;17.30;;;15.60;;
63217;SDS011;49314;48.278;16.378;2022-10-26T10:50:36;15.60;;;13.93;;
63217;SDS011;49314;48.278;16.378;2022-10-26T10:53:15;17.85;;;15.93;;
63217;SDS011;49314;48.278;16.378;2022-10-26T10:55:42;18.25;;;16.35;;
63217;SDS011;49314;48.278;16.378;2022-10-26T10:58:29;19.10;;;17.10;;
63217;SDS011;49314;48.278;16.378;2022-10-26T11:00:57;16.80;;;15.15;;
63217;SDS011;49314;48.278;16.378;2022-10-26T11:06:02;20.45;;;16.02;;
63217;SDS011;49314;48.278;16.378;2022-10-26T11:10:59;19.43;;;16.93;;
63217;SDS011;49314;48.278;16.378;2022-10-26T11:13:33;21.08;;;16.10;;
63217;SDS011;49314;48.278;16.378;2022-10-26T11:16:00;19.73;;;15.80;;
63217;SDS011;49314;48.278;16.378;2022-10-26T11:18:33;19.48;;;17.27;;
63217;SDS011;49314;48.278;16.378;2022-10-26T11:21:11;18.15;;;16.33;;
63217;SDS011;49314;48.278;16.378;2022-10-26T11:23:49;21.63;;;17.73;;
63217;SDS011;49314;48.278;16.378;2022-10-26T11:26:32;18.67;;;16.70;;
63217;SDS011;49314;48.278;16.378;2022-10-26T11:29:06;19.70;;;17.60;;
63217;SDS011;49314;48.278;16.378;2022-10-26T11:31:38;22.02;;;17.27;;
63217;SDS011;49314;48.278;16.378;2022-10-26T11:36:36;28.42;;;18.60;;
63217;SDS011;49314;48.278;16.378;2022-10-26T11:39:13;27.45;;;19.77;;
63217;SDS011;49314;48.278;16.378;2022-10-26T11:46:38;22.35;;;15.98;;
63217;SDS011;49314;48.278;16.378;2022-10-26T11:49:13;22.10;;;16.23;;
63217;SDS011;49314;48.278;16.378;2022-10-26T11:54:27;17.40;;;15.05;;
63217;SDS011;49314;48.278;16.378;2022-10-26T11:56:54;18.02;;;15.70;;
63217;SDS011;49314;48.278;16.378;2022-10-26T11:59:21;17.77;;;15.70;;
63217;SDS011;49314;48.278;16.378;2022-10-26T12:01:48;16.75;;;15.05;;
63217;SDS011;49314;48.278;16.378;2022-10-26T12:04:15;17.92;;;15.15;;
63217;SDS011;49314;48.278;16.378;2022-10-26T12:06:41;18.98;;;14.82;;
63217;SDS011;49314;48.278;16.378;2022-10-26T12:09:07;15.35;;;13.65;;
63217;SDS011;49314;48.278;16.378;2022-10-26T12:11:44;17.17;;;15.10;;
63217;SDS011;49314;48.278;16.378;2022-10-26T12:14:21;17.63;;;15.27;;
63217;SDS011;49314;48.278;16.378;2022-10-26T12:19:38;16.48;;;13.77;;
63217;SDS011;49314;48.278;16.378;2022-10-26T12:22:08;17.40;;;15.35;;
63217;SDS011;49314;48.278;16.378;2022-10-26T12:24:35;17.05;;;14.48;;
63217;SDS011;49314;48.278;16.378;2022-10-26T12:27:18;15.90;;;14.10;;
63217;SDS011;49314;48.278;16.378;2022-10-26T12:29:56;16.05;;;14.15;;
63217;SDS011;49314;48.278;16.378;2022-10-26T12:35:09;15.77;;;14.07;;
63217;SDS011;49314;48.278;16.378;2022-10-26T12:37:47;17.00;;;14.43;;
63217;SDS011;49314;48.278;16.378;2022-10-26T12:48:43;18.38;;;14.00;;
63217;SDS011;49314;48.278;16.378;2022-10-26T12:53:45;14.57;;;13.02;;
63217;SDS011;49314;48.278;16.378;2022-10-26T12:56:13;15.23;;;13.63;;
63217;SDS011;49314;48.278;16.378;2022-10-26T12:58:57;16.02;;;14.48;;
63217;SDS011;49314;48.278;16.378;2022-10-26T13:01:37;15.80;;;14.30;;
63217;SDS011;49314;48.278;16.378;2022-10-26T13:06:51;15.43;;;13.93;;
63217;SDS011;49314;48.278;16.378;2022-10-26T13:09:21;15.18;;;12.10;;
63217;SDS011;49314;48.278;16.378;2022-10-26T13:11:54;15.35;;;13.75;;
63217;SDS011;49314;48.278;16.378;2022-10-26T13:14:24;14.48;;;12.98;;
63217;SDS011;49314;48.278;16.378;2022-10-26T13:16:50;14.32;;;12.82;;
63217;SDS011;49314;48.278;16.378;2022-10-26T13:21:50;13.98;;;12.70;;
63217;SDS011;49314;48.278;16.378;2022-10-26T13:24:16;14.85;;;13.30;;
63217;SDS011;49314;48.278;16.378;2022-10-26T13:30:11;15.88;;;14.10;;
63217;SDS011;49314;48.278;16.378;2022-10-26T13:32:18;14.02;;;12.60;;
63217;SDS011;49314;48.278;16.378;2022-10-26T13:34:44;13.75;;;12.27;;
63217;SDS011;49314;48.278;16.378;2022-10-26T13:39:37;15.43;;;13.43;;
63217;SDS011;49314;48.278;16.378;2022-10-26T13:42:04;13.18;;;11.98;;
63217;SDS011;49314;48.278;16.378;2022-10-26T13:44:41;13.05;;;11.88;;
63217;SDS011;49314;48.278;16.378;2022-10-26T13:47:09;13.88;;;12.48;;
63217;SDS011;49314;48.278;16.378;2022-10-26T13:49:39;15.48;;;13.98;;
63217;SDS011;49314;48.278;16.378;2022-10-26T13:52:05;15.02;;;13.63;;
63217;SDS011;49314;48.278;16.378;2022-10-26T13:54:41;13.82;;;12.52;;
63217;SDS011;49314;48.278;16.378;2022-10-26T13:57:28;12.15;;;10.88;;
63217;SDS011;49314;48.278;16.378;2022-10-26T13:59:54;16.88;;;14.05;;
63217;SDS011;49314;48.278;16.378;2022-10-26T14:04:50;16.42;;;14.60;;
63217;SDS011;49314;48.278;16.378;2022-10-26T14:07:20;17.10;;;15.40;;
63217;SDS011;49314;48.278;16.378;2022-10-26T14:09:50;15.52;;;14.07;;
63217;SDS011;49314;48.278;16.378;2022-10-26T14:12:16;15.82;;;13.60;;
63217;SDS011;49314;48.278;16.378;2022-10-26T14:14:41;15.60;;;14.00;;
63217;SDS011;49314;48.278;16.378;2022-10-26T14:17:13;15.93;;;14.38;;
63217;SDS011;49314;48.278;16.378;2022-10-26T14:19:42;15.80;;;14.07;;
63217;SDS011;49314;48.278;16.378;2022-10-26T14:22:13;18.83;;;15.35;;
63217;SDS011;49314;48.278;16.378;2022-10-26T14:24:49;17.45;;;14.80;;
63217;SDS011;49314;48.278;16.378;2022-10-26T14:27:15;14.10;;;12.63;;
63217;SDS011;49314;48.278;16.378;2022-10-26T14:29:41;17.70;;;14.73;;
63217;SDS011;49314;48.278;16.378;2022-10-26T14:32:18;18.47;;;14.37;;
63217;SDS011;49314;48.278;16.378;2022-10-26T14:34:44;16.95;;;14.02;;
63217;SDS011;49314;48.278;16.378;2022-10-26T14:37:09;15.93;;;14.37;;
63217;SDS011;49314;48.278;16.378;2022-10-26T14:39:42;17.80;;;16.00;;
63217;SDS011;49314;48.278;16.378;2022-10-26T14:42:19;15.52;;;13.73;;
63217;SDS011;49314;48.278;16.378;2022-10-26T14:44:47;16.40;;;14.70;;
63217;SDS011;49314;48.278;16.378;2022-10-26T14:47:18;15.93;;;14.20;;
63217;SDS011;49314;48.278;16.378;2022-10-26T14:49:45;18.40;;;14.77;;
63217;SDS011;49314;48.278;16.378;2022-10-26T14:52:10;16.50;;;14.75;;
63217;SDS011;49314;48.278;16.378;2022-10-26T14:54:38;17.25;;;15.50;;
63217;SDS011;49314;48.278;16.378;2022-10-26T14:57:04;19.45;;;14.93;;
63217;SDS011;49314;48.278;16.378;2022-10-26T14:59:32;18.48;;;15.23;;
63217;SDS011;49314;48.278;16.378;2022-10-26T15:04:39;17.87;;;16.03;;
63217;SDS011;49314;48.278;16.378;2022-10-26T15:09:51;15.75;;;13.57;;
63217;SDS011;49314;48.278;16.378;2022-10-26T15:12:27;14.02;;;12.75;;
63217;SDS011;49314;48.278;16.378;2022-10-26T15:14:53;12.02;;;10.80;;
63217;SDS011;49314;48.278;16.378;2022-10-26T15:17:26;13.25;;;12.00;;
63217;SDS011;49314;48.278;16.378;2022-10-26T15:19:56;13.00;;;11.63;;
63217;SDS011;49314;48.278;16.378;2022-10-26T15:22:25;12.93;;;11.40;;
63217;SDS011;49314;48.278;16.378;2022-10-26T15:24:55;12.68;;;11.43;;
63217;SDS011;49314;48.278;16.378;2022-10-26T15:27:21;12.30;;;11.10;;
63217;SDS011;49314;48.278;16.378;2022-10-26T15:29:51;13.30;;;12.05;;
63217;SDS011;49314;48.278;16.378;2022-10-26T15:34:48;11.88;;;10.88;;
63217;SDS011;49314;48.278;16.378;2022-10-26T15:37:14;12.48;;;11.27;;
63217;SDS011;49314;48.278;16.378;2022-10-26T15:39:39;12.18;;;11.07;;
63217;SDS011;49314;48.278;16.378;2022-10-26T15:42:05;12.02;;;10.25;;
63217;SDS011;49314;48.278;16.378;2022-10-26T15:44:33;12.35;;;11.25;;
63217;SDS011;49314;48.278;16.378;2022-10-26T15:46:59;12.03;;;10.93;;
63217;SDS011;49314;48.278;16.378;2022-10-26T15:49:25;12.38;;;11.18;;
63217;SDS011;49314;48.278;16.378;2022-10-26T15:51:50;13.03;;;11.43;;
63217;SDS011;49314;48.278;16.378;2022-10-26T15:54:15;12.63;;;11.33;;
63217;SDS011;49314;48.278;16.378;2022-10-26T15:56:41;13.77;;;12.40;;
63217;SDS011;49314;48.278;16.378;2022-10-26T15:59:12;15.93;;;14.02;;
63217;SDS011;49314;48.278;16.378;2022-10-26T16:01:37;15.52;;;14.00;;
63217;SDS011;49314;48.278;16.378;2022-10-26T16:04:03;15.53;;;14.07;;
63217;SDS011;49314;48.278;16.378;2022-10-26T16:06:29;16.63;;;14.93;;
63217;SDS011;49314;48.278;16.378;2022-10-26T16:08:55;15.07;;;13.55;;
63217;SDS011;49314;48.278;16.378;2022-10-26T16:11:21;15.07;;;13.63;;
63217;SDS011;49314;48.278;16.378;2022-10-26T16:13:47;15.27;;;13.07;;
63217;SDS011;49314;48.278;16.378;2022-10-26T16:16:12;15.38;;;13.68;;
63217;SDS011;49314;48.278;16.378;2022-10-26T16:18:38;16.60;;;13.95;;
63217;SDS011;49314;48.278;16.378;2022-10-26T16:21:03;15.47;;;13.80;;
63217;SDS011;49314;48.278;16.378;2022-10-26T16:23:29;14.73;;;12.68;;
63217;SDS011;49314;48.278;16.378;2022-10-26T16:25:54;18.30;;;15.48;;
63217;SDS011;49314;48.278;16.378;2022-10-26T16:28:19;15.73;;;12.35;;